Time;durP1;ratioP1;P1;durP2;ratioP2;P2;SDS_P1;SDS_P2;PMS_P1;PMS_P2;Temp;Humidity;BMP_temperature;BMP_pressure;BME280_temperature;BME280_humidity;BME280_pressure;Samples;Min_cycle;Max_cycle;Signal;HPM_P1;HPM_P2
2023/09/16 00:00:35;;;;;;;15.80;12.63;;;;;;;15.58;63.44;100554.28;5054091;28;20439;-60
2023/09/16 00:03:03;;;;;;;15.15;12.32;;;;;;;15.55;63.22;100555.41;5053442;28;20033;-60
2023/09/16 00:05:29;;;;;;;16.50;13.65;;;;;;;15.34;63.67;100521.25;5053636;28;20039;-61
2023/09/16 00:07:55;;;;;;;19.42;13.15;;;;;;;15.56;63.89;100554.41;5053650;28;20123;-60
2023/09/16 00:10:21;;;;;;;14.68;12.98;;;;;;;15.64;63.45;100564.50;5053819;28;20108;-61
2023/09/16 00:12:46;;;;;;;15.80;12.75;;;;;;;15.64;63.53;100551.84;5053590;28;20103;-62
2023/09/16 00:15:12;;;;;;;14.88;12.63;;;;;;;15.71;63.88;100554.84;5052013;28;20083;-61
2023/09/16 00:17:37;;;;;;;18.60;12.30;;;;;;;15.72;63.98;100558.44;5053458;28;20036;-62
2023/09/16 00:20:14;;;;;;;15.13;12.77;;;;;;;15.75;64.54;100564.38;5052982;28;20040;-61
2023/09/16 00:22:42;;;;;;;14.60;12.98;;;;;;;15.79;64.81;100567.66;5053595;28;20024;-61
2023/09/16 00:25:08;;;;;;;19.02;13.40;;;;;;;15.80;64.79;100561.25;5052639;28;20464;-68
2023/09/16 00:27:35;;;;;;;18.48;13.88;;;;;;;15.78;65.28;100566.78;5052070;28;20072;-62
2023/09/16 00:30:03;;;;;;;16.30;14.60;;;;;;;15.76;65.33;100567.94;5052760;28;20025;-61
2023/09/16 00:32:32;;;;;;;16.15;13.85;;;;;;;15.73;65.34;100562.84;5053392;28;20032;-60
2023/09/16 00:34:58;;;;;;;16.25;14.10;;;;;;;15.72;65.82;100578.16;5053279;28;20055;-61
2023/09/16 00:37:24;;;;;;;18.40;14.45;;;;;;;15.71;65.92;100567.50;5053080;28;20068;-61
2023/09/16 00:39:50;;;;;;;17.58;13.90;;;;;;;15.58;65.99;100568.63;5052814;28;20438;-63
2023/09/16 00:42:16;;;;;;;18.40;15.00;;;;;;;15.50;66.40;100557.66;5053389;28;20032;-60
2023/09/16 00:44:42;;;;;;;17.92;15.77;;;;;;;15.49;66.62;100567.59;5053429;28;20025;-61
2023/09/16 00:47:07;;;;;;;19.00;14.43;;;;;;;15.29;66.87;100545.09;5052999;28;20039;-64
2023/09/16 00:49:34;;;;;;;18.10;15.52;;;;;;;15.41;67.16;100569.25;5053219;28;20037;-60
2023/09/16 00:52:00;;;;;;;19.65;15.65;;;;;;;15.14;67.35;100532.97;5053086;28;20040;-63
2023/09/16 00:54:26;;;;;;;18.98;16.80;;;;;;;15.11;67.75;100533.25;5053062;28;20056;-61
2023/09/16 00:56:54;;;;;;;21.00;16.98;;;;;;;15.18;67.78;100562.25;5052618;28;20075;-60
2023/09/16 00:59:22;;;;;;;20.33;17.38;;;;;;;15.21;67.98;100583.53;5052886;28;20352;-61
2023/09/16 01:01:51;;;;;;;22.90;17.38;;;;;;;15.14;68.22;100563.50;5052797;28;20360;-61
2023/09/16 01:04:18;;;;;;;20.23;17.42;;;;;;;15.15;68.34;100581.41;5053058;28;20040;-61
2023/09/16 01:06:44;;;;;;;20.90;17.70;;;;;;;15.15;68.25;100586.78;5051458;28;20025;-61
2023/09/16 01:09:15;;;;;;;22.23;18.00;;;;;;;14.94;68.42;100546.38;5052277;28;20040;-62
2023/09/16 01:11:41;;;;;;;24.30;18.20;;;;;;;15.14;68.55;100576.13;5053005;28;20110;-62
2023/09/16 01:14:11;;;;;;;22.40;16.83;;;;;;;15.15;68.74;100585.94;5053099;28;20470;-61
2023/09/16 01:16:43;;;;;;;23.08;17.67;;;;;;;15.23;68.71;100586.13;5052471;28;20028;-60
2023/09/16 01:19:26;;;;;;;21.33;17.63;;;;;;;15.27;68.58;100571.38;5052757;28;20456;-60
2023/09/16 01:21:52;;;;;;;20.02;15.57;;;;;;;15.27;68.43;100579.47;5052975;28;20438;-61
2023/09/16 01:24:19;;;;;;;18.35;16.13;;;;;;;15.36;68.53;100597.50;5052698;28;20363;-59
2023/09/16 01:26:46;;;;;;;19.58;15.38;;;;;;;15.42;68.54;100604.22;5052070;28;20060;-61
2023/09/16 01:29:13;;;;;;;17.70;14.93;;;;;;;15.27;68.32;100570.50;5052252;28;20098;-61
2023/09/16 01:31:40;;;;;;;19.08;15.38;;;;;;;15.46;68.27;100602.94;5052859;28;20410;-62
2023/09/16 01:34:13;;;;;;;18.73;14.82;;;;;;;15.29;67.94;100576.59;5052191;28;20076;-61
2023/09/16 01:36:41;;;;;;;16.35;14.32;;;;;;;15.47;68.29;100607.34;5052385;28;20056;-60
2023/09/16 01:39:08;;;;;;;15.55;13.35;;;;;;;15.41;68.26;100623.22;5051009;28;20349;-61
2023/09/16 01:41:36;;;;;;;17.33;13.07;;;;;;;15.40;68.44;100608.91;5052336;28;20066;-61
2023/09/16 01:44:02;;;;;;;14.70;13.20;;;;;;;15.38;68.04;100601.91;5052110;28;20115;-60
2023/09/16 01:46:28;;;;;;;13.70;12.18;;;;;;;15.34;68.18;100604.91;5051407;28;20147;-60
2023/09/16 01:48:53;;;;;;;13.02;11.73;;;;;;;15.30;68.42;100611.56;5051554;28;20426;-60
2023/09/16 01:51:19;;;;;;;11.52;10.20;;;;;;;15.27;68.48;100616.34;5051748;28;20044;-60
2023/09/16 01:53:44;;;;;;;11.65;9.55;;;;;;;15.23;68.43;100609.53;5051606;28;20116;-61
2023/09/16 01:56:10;;;;;;;10.93;9.82;;;;;;;15.23;68.71;100617.63;5052230;28;20025;-61
2023/09/16 01:58:36;;;;;;;10.65;9.55;;;;;;;15.23;68.66;100625.72;5051794;28;20456;-60
2023/09/16 02:01:10;;;;;;;12.48;10.45;;;;;;;15.26;68.99;100625.44;5051691;28;20103;-60
2023/09/16 02:03:36;;;;;;;12.10;10.90;;;;;;;15.29;68.54;100631.44;5051821;28;20025;-61
2023/09/16 02:06:01;;;;;;;11.88;10.57;;;;;;;15.26;68.52;100625.44;5051407;28;20075;-59
2023/09/16 02:08:27;;;;;;;14.25;10.70;;;;;;;15.29;68.47;100626.03;5051815;28;20036;-60
2023/09/16 02:10:52;;;;;;;13.05;10.93;;;;;;;15.29;68.53;100625.16;5051715;28;20075;-59
2023/09/16 02:13:18;;;;;;;12.48;10.85;;;;;;;15.22;68.30;100622.19;5050746;28;20448;-60
2023/09/16 02:15:44;;;;;;;13.30;11.88;;;;;;;15.15;68.79;100626.38;5051640;28;20060;-60
2023/09/16 02:18:10;;;;;;;12.88;10.95;;;;;;;15.16;68.97;100628.09;5051860;28;20021;-60
2023/09/16 02:20:35;;;;;;;14.85;12.02;;;;;;;15.15;69.57;100635.34;5051392;28;20461;-62
2023/09/16 02:23:02;;;;;;;14.88;12.65;;;;;;;15.06;70.48;100646.91;5050358;28;20033;-61
2023/09/16 02:25:48;;;;;;;15.15;12.20;;;;;;;14.92;70.90;100642.72;5050856;28;20049;-60
2023/09/16 02:28:13;;;;;;;17.55;13.07;;;;;;;14.81;71.78;100646.31;5051281;28;20028;-65
2023/09/16 02:30:39;;;;;;;13.40;12.05;;;;;;;14.72;72.18;100641.75;5052214;28;20029;-59
2023/09/16 02:33:04;;;;;;;14.35;12.85;;;;;;;14.72;72.30;100650.69;5050403;28;20447;-60
2023/09/16 02:35:30;;;;;;;10.63;9.52;;;;;;;14.63;72.73;100629.88;5051082;28;20112;-61
2023/09/16 02:37:57;;;;;;;10.80;9.70;;;;;;;14.60;73.02;100644.47;5051494;28;20028;-62
2023/09/16 02:40:22;;;;;;;9.25;8.32;;;;;;;14.32;73.13;100616.31;5051672;28;20463;-62
2023/09/16 02:42:48;;;;;;;9.50;8.50;;;;;;;14.53;73.87;100650.50;5051236;28;20072;-61
2023/09/16 02:45:13;;;;;;;8.45;7.55;;;;;;;14.52;73.71;100654.19;5051543;28;20440;-61
2023/09/16 02:47:39;;;;;;;8.60;7.70;;;;;;;14.50;74.07;100657.88;5053004;28;20033;-59
2023/09/16 02:50:05;;;;;;;8.13;7.28;;;;;;;14.51;74.00;100661.41;5055558;28;20036;-60
2023/09/16 02:52:31;;;;;;;7.43;6.72;;;;;;;14.50;73.73;100657.88;5055103;28;20134;-61
2023/09/16 02:54:56;;;;;;;8.27;6.60;;;;;;;14.40;73.66;100650.69;5055264;28;20029;-60
2023/09/16 02:57:21;;;;;;;7.43;6.72;;;;;;;14.49;73.92;100661.53;5055399;28;20112;-60
2023/09/16 02:59:47;;;;;;;5.90;5.40;;;;;;;14.47;73.59;100662.66;5055630;28;20052;-59
2023/09/16 03:02:12;;;;;;;5.43;4.70;;;;;;;14.44;73.70;100660.22;5054783;28;20489;-60
2023/09/16 03:04:38;;;;;;;5.70;4.60;;;;;;;14.29;73.62;100638.09;5054795;28;20064;-57
2023/09/16 03:07:04;;;;;;;5.00;4.30;;;;;;;14.46;73.52;100669.84;5054170;28;20029;-59
2023/09/16 03:09:29;;;;;;;4.20;3.80;;;;;;;14.47;73.31;100663.50;5054092;28;20032;-60
2023/09/16 03:11:55;;;;;;;3.90;3.50;;;;;;;14.49;73.32;100671.44;5054170;28;20099;-61
2023/09/16 03:14:20;;;;;;;3.33;3.03;;;;;;;14.49;73.01;100675.00;5054807;28;20037;-59
2023/09/16 03:16:46;;;;;;;2.72;2.53;;;;;;;14.53;72.89;100678.28;5055114;28;20041;-66
2023/09/16 03:19:13;;;;;;;2.47;2.28;;;;;;;14.53;72.32;100677.44;5055300;28;20380;-60
2023/09/16 03:21:39;;;;;;;2.40;2.20;;;;;;;14.31;72.22;100657.69;5054808;28;20081;-59
2023/09/16 03:24:05;;;;;;;2.00;1.80;;;;;;;14.45;72.28;100686.16;5054740;28;20041;-59
2023/09/16 03:26:30;;;;;;;1.60;1.50;;;;;;;14.49;72.01;100691.19;5054131;28;20071;-62
2023/09/16 03:28:56;;;;;;;2.05;1.60;;;;;;;14.47;71.74;100701.25;5055104;28;20088;-61
2023/09/16 03:31:22;;;;;;;1.80;1.25;;;;;;;14.46;71.62;100695.97;5054560;28;20391;-61
2023/09/16 03:33:47;;;;;;;2.65;1.70;;;;;;;14.45;71.35;100697.78;5053062;28;20029;-62
2023/09/16 03:36:13;;;;;;;1.90;0.90;;;;;;;14.44;71.16;100706.84;5054927;28;20162;-58
2023/09/16 03:38:49;;;;;;;1.00;0.90;;;;;;;14.47;71.34;100705.75;5054393;28;20033;-61
2023/09/16 03:41:16;;;;;;;1.95;1.00;;;;;;;14.35;70.93;100707.63;5054606;28;20037;-60
2023/09/16 03:43:42;;;;;;;3.88;0.80;;;;;;;14.25;70.95;100706.69;5054128;28;20029;-61
2023/09/16 03:46:08;;;;;;;1.00;0.80;;;;;;;14.23;71.33;100709.50;5053375;28;20032;-61
2023/09/16 03:48:34;;;;;;;1.25;0.70;;;;;;;14.09;71.50;100689.09;5053958;28;20041;-60
2023/09/16 03:50:59;;;;;;;2.72;0.80;;;;;;;14.26;71.25;100708.41;5054381;28;20025;-60
2023/09/16 03:53:25;;;;;;;0.95;0.57;;;;;;;14.27;71.18;100719.03;5054008;28;20480;-60
2023/09/16 03:55:54;;;;;;;1.02;0.93;;;;;;;14.38;71.30;100723.53;5054104;28;20032;-58
2023/09/16 03:58:20;;;;;;;0.60;0.55;;;;;;;14.38;70.47;100722.69;5051879;28;20032;-60
2023/09/16 04:00:47;;;;;;;0.50;0.50;;;;;;;14.43;70.48;100718.63;5054050;28;20032;-56
2023/09/16 04:03:13;;;;;;;1.42;0.47;;;;;;;14.47;69.99;100711.16;5054306;28;20041;-58
2023/09/16 04:05:39;;;;;;;2.88;0.80;;;;;;;14.52;70.11;100711.59;5053817;28;20052;-59
2023/09/16 04:08:04;;;;;;;2.00;0.80;;;;;;;14.35;69.97;100680.69;5053630;28;20037;-61
2023/09/16 04:10:30;;;;;;;1.27;0.70;;;;;;;14.61;69.85;100724.34;5053994;28;20028;-61
2023/09/16 04:12:56;;;;;;;1.33;0.60;;;;;;;14.61;69.09;100712.69;5053351;28;20068;-59
2023/09/16 04:15:21;;;;;;;1.65;0.70;;;;;;;14.54;69.28;100717.72;5053484;28;20071;-57
2023/09/16 04:17:48;;;;;;;0.95;0.57;;;;;;;14.56;69.10;100720.31;5053433;28;20021;-60
2023/09/16 04:20:14;;;;;;;0.95;0.63;;;;;;;14.48;69.06;100712.84;5053600;28;20029;-62
2023/09/16 04:22:39;;;;;;;4.68;0.52;;;;;;;14.50;69.16;100724.34;5053031;28;20055;-58
2023/09/16 04:25:05;;;;;;;0.75;0.45;;;;;;;14.54;68.96;100738.44;5053458;28;20036;-61
2023/09/16 04:27:31;;;;;;;1.90;0.52;;;;;;;14.48;68.72;100721.81;5053390;28;20116;-61
2023/09/16 04:29:56;;;;;;;0.52;0.28;;;;;;;14.55;68.59;100732.06;5053298;28;20374;-62
2023/09/16 04:32:21;;;;;;;2.28;0.50;;;;;;;14.63;68.63;100743.06;5052344;28;20032;-61
2023/09/16 04:34:47;;;;;;;0.57;0.40;;;;;;;14.67;68.40;100741.81;5054216;28;20021;-59
2023/09/16 04:37:13;;;;;;;2.22;0.52;;;;;;;14.75;68.15;100744.78;5052673;28;20029;-61
2023/09/16 04:39:39;;;;;;;0.65;0.35;;;;;;;14.81;67.83;100745.22;5053394;28;20399;-61
2023/09/16 04:42:05;;;;;;;1.67;0.40;;;;;;;14.62;67.66;100717.09;5053543;28;20093;-59
2023/09/16 04:44:30;;;;;;;1.70;0.43;;;;;;;14.68;67.24;100734.59;5053652;28;20369;-58
2023/09/16 04:46:55;;;;;;;1.85;0.40;;;;;;;14.74;67.61;100751.16;5051301;28;20032;-60
2023/09/16 04:49:22;;;;;;;1.88;0.43;;;;;;;14.74;67.85;100764.63;5051694;28;20117;-64
2023/09/16 04:51:48;;;;;;;0.70;0.60;;;;;;;14.67;68.06;100766.06;5053085;28;20387;-59
2023/09/16 04:54:13;;;;;;;0.52;0.52;;;;;;;14.71;67.99;100767.59;5052879;28;20029;-60
2023/09/16 04:56:39;;;;;;;1.98;0.70;;;;;;;14.76;67.68;100765.34;5052646;28;20021;-60
2023/09/16 04:59:05;;;;;;;0.70;0.40;;;;;;;14.83;67.28;100772.91;5051213;28;20515;-59
2023/09/16 05:01:31;;;;;;;0.40;0.40;;;;;;;14.80;67.22;100765.09;5052250;28;20406;-59
2023/09/16 05:03:58;;;;;;;1.75;0.57;;;;;;;14.82;66.88;100773.91;5052797;28;20044;-60
2023/09/16 05:06:23;;;;;;;1.23;0.68;;;;;;;14.61;66.98;100751.28;5051559;28;20410;-61
2023/09/16 05:08:49;;;;;;;0.90;0.70;;;;;;;14.75;66.75;100777.13;5051437;28;20020;-61
2023/09/16 05:11:15;;;;;;;1.02;0.40;;;;;;;14.75;66.81;100779.81;5052584;28;20047;-62
2023/09/16 05:13:41;;;;;;;1.27;0.60;;;;;;;14.77;66.29;100794.03;5051886;28;20049;-61
2023/09/16 05:16:10;;;;;;;1.15;0.60;;;;;;;14.76;66.27;100780.66;5052177;28;20116;-60
2023/09/16 05:18:35;;;;;;;0.65;0.40;;;;;;;14.80;65.42;100776.72;5051989;28;20040;-61
2023/09/16 05:21:01;;;;;;;0.70;0.40;;;;;;;14.60;65.28;100765.75;5052388;28;20328;-67
2023/09/16 05:23:26;;;;;;;1.30;0.60;;;;;;;14.57;65.43;100754.34;5052985;28;20025;-62
2023/09/16 05:25:52;;;;;;;0.80;0.32;;;;;;;14.76;65.31;100792.31;5052909;28;20397;-63
2023/09/16 05:28:18;;;;;;;3.08;0.70;;;;;;;14.81;64.96;100791.06;5052045;28;20036;-64
2023/09/16 05:30:44;;;;;;;1.70;0.40;;;;;;;14.89;64.79;100802.06;5052383;28;20025;-63
2023/09/16 05:33:10;;;;;;;2.85;0.68;;;;;;;14.85;64.67;100795.22;5052659;28;20047;-64
2023/09/16 05:35:40;;;;;;;1.88;0.50;;;;;;;14.96;64.36;100797.00;5051936;28;20122;-61
2023/09/16 05:38:06;;;;;;;2.58;0.47;;;;;;;14.92;64.39;100797.28;5034287;28;20033;-61
2023/09/16 05:40:31;;;;;;;2.53;0.45;;;;;;;14.92;63.78;100797.28;5052042;28;20384;-59
2023/09/16 05:42:57;;;;;;;0.45;0.38;;;;;;;14.97;63.85;100802.28;5051507;28;20021;-62
2023/09/16 05:45:23;;;;;;;3.47;0.57;;;;;;;14.83;63.85;100797.19;5051030;28;20039;-62
2023/09/16 05:47:49;;;;;;;1.05;0.47;;;;;;;14.90;63.94;100817.25;5051398;28;20151;-54
2023/09/16 05:50:16;;;;;;;0.52;0.30;;;;;;;14.74;63.80;100782.63;5050959;28;20479;-61
2023/09/16 05:52:41;;;;;;;0.50;0.50;;;;;;;14.92;63.97;100820.66;5051545;28;20029;-56
2023/09/16 05:55:07;;;;;;;3.17;0.90;;;;;;;14.92;63.63;100815.28;5051462;28;20374;-57
2023/09/16 05:57:33;;;;;;;1.25;0.73;;;;;;;14.88;63.80;100808.44;5050953;28;20027;-53
2023/09/16 05:59:58;;;;;;;2.88;1.33;;;;;;;14.92;63.71;100823.38;5051585;28;20063;-55
2023/09/16 06:02:24;;;;;;;1.10;1.00;;;;;;;14.95;63.91;100831.22;5050334;28;20064;-56
2023/09/16 06:04:49;;;;;;;2.05;0.80;;;;;;;14.88;63.34;100828.19;5051391;28;20037;-53
2023/09/16 06:07:16;;;;;;;1.30;0.60;;;;;;;14.88;63.20;100830.88;5051379;28;20613;-55
2023/09/16 06:09:41;;;;;;;0.80;0.70;;;;;;;14.89;62.98;100834.41;5051220;28;20090;-52
2023/09/16 06:12:08;;;;;;;3.10;0.95;;;;;;;14.80;62.96;100830.63;5050894;28;20437;-54
2023/09/16 06:14:34;;;;;;;9.40;2.30;;;;;;;14.75;62.85;100844.50;5051566;28;20039;-56
2023/09/16 06:16:59;;;;;;;3.10;0.93;;;;;;;14.72;62.70;100844.78;5050298;28;20123;-50
2023/09/16 06:19:27;;;;;;;3.60;1.33;;;;;;;14.75;62.54;100846.34;5051507;28;20029;-55
2023/09/16 06:21:53;;;;;;;4.13;2.05;;;;;;;14.82;62.58;100849.38;5054777;28;20408;-52
2023/09/16 06:24:19;;;;;;;17.58;3.55;;;;;;;14.92;62.25;100851.19;5054549;28;20348;-55
2023/09/16 06:26:45;;;;;;;3.47;1.10;;;;;;;15.03;61.75;100850.31;5055053;28;20124;-57
2023/09/16 06:29:10;;;;;;;3.08;1.30;;;;;;;15.17;61.27;100859.94;5055118;28;20365;-58
2023/09/16 06:31:36;;;;;;;5.20;1.77;;;;;;;15.18;60.69;100852.69;5055218;28;20045;-58
2023/09/16 06:34:02;;;;;;;5.85;1.10;;;;;;;15.17;60.74;100875.25;5055073;28;20444;-56
2023/09/16 06:36:28;;;;;;;3.70;1.08;;;;;;;15.24;60.29;100873.78;5055236;28;20048;-61
2023/09/16 06:38:54;;;;;;;2.17;1.02;;;;;;;15.24;59.86;100865.69;5054866;28;20097;-62
2023/09/16 06:41:20;;;;;;;3.83;0.70;;;;;;;15.32;59.72;100867.75;5053975;28;20036;-52
2023/09/16 06:43:45;;;;;;;2.60;0.90;;;;;;;15.53;59.16;100885.78;5053931;28;20359;-58
2023/09/16 06:46:11;;;;;;;1.00;0.90;;;;;;;15.49;59.20;100882.50;5054489;28;20032;-58
2023/09/16 06:48:36;;;;;;;3.17;0.80;;;;;;;15.47;58.83;100873.69;5054336;28;20025;-55
2023/09/16 06:51:20;;;;;;;3.67;0.80;;;;;;;15.30;59.00;100864.28;5054724;28;20056;-55
2023/09/16 06:53:46;;;;;;;3.03;0.80;;;;;;;15.49;58.42;100875.25;5054185;28;20383;-58
2023/09/16 06:56:11;;;;;;;2.75;1.88;;;;;;;15.54;58.18;100888.34;5054855;28;20037;-55
2023/09/16 06:58:37;;;;;;;1.90;1.80;;;;;;;15.62;58.48;100885.00;5054930;28;20383;-58
2023/09/16 07:01:12;;;;;;;2.80;2.20;;;;;;;15.77;58.36;100899.03;5054575;28;20029;-59
2023/09/16 07:03:38;;;;;;;;;;;;;;;16.16;58.05;100902.03;5055237;28;20033;-57
2023/09/16 07:06:03;;;;;;;;;;;;;;;16.40;57.08;100900.00;5054404;28;19913;-56
2023/09/16 07:08:29;;;;;;;5.80;2.50;;;;;;;16.02;57.01;100886.16;5054439;28;19970;-64
2023/09/16 07:10:55;;;;;;;3.90;2.50;;;;;;;15.90;57.46;100888.91;5055060;28;20186;-57
2023/09/16 07:13:21;;;;;;;3.45;1.98;;;;;;;15.89;57.62;100897.16;5051126;28;20391;-63
2023/09/16 07:15:54;;;;;;;3.70;1.50;;;;;;;16.03;57.46;100896.81;5053281;28;20098;-57
2023/09/16 07:18:20;;;;;;;3.95;1.60;;;;;;;16.04;56.80;100901.25;5052211;28;20048;-59
2023/09/16 07:20:45;;;;;;;8.90;1.50;;;;;;;16.13;56.69;100883.34;5049202;28;20041;-62
2023/09/16 07:23:11;;;;;;;4.22;2.17;;;;;;;16.34;55.92;100901.38;5053554;28;20036;-60
2023/09/16 07:25:36;;;;;;;3.08;1.92;;;;;;;16.36;55.68;100899.41;5053856;28;20044;-58
2023/09/16 07:28:04;;;;;;;2.92;1.83;;;;;;;16.56;55.48;100896.78;5053964;28;20032;-59
2023/09/16 07:30:33;;;;;;;2.50;1.02;;;;;;;16.73;54.80;100895.25;5053893;28;20033;-66
2023/09/16 07:32:59;;;;;;;2.05;0.80;;;;;;;16.87;54.09;100896.72;5031966;28;20029;-58
2023/09/16 07:35:24;;;;;;;1.05;0.82;;;;;;;16.97;53.31;100897.63;5054219;28;20055;-59
2023/09/16 07:37:51;;;;;;;4.43;0.80;;;;;;;17.08;52.91;100905.63;5053343;28;20102;-61
2023/09/16 07:40:16;;;;;;;1.20;0.65;;;;;;;17.17;52.64;100903.94;5054003;28;20032;-60
2023/09/16 07:42:42;;;;;;;0.95;0.88;;;;;;;17.27;52.13;100898.53;5052499;28;20040;-59
2023/09/16 07:45:08;;;;;;;1.98;0.88;;;;;;;17.32;51.84;100898.13;5053263;28;20028;-59
2023/09/16 07:47:34;;;;;;;2.05;1.05;;;;;;;17.43;51.82;100907.94;5053046;28;20402;-58
2023/09/16 07:50:00;;;;;;;3.65;1.05;;;;;;;17.36;51.35;100897.69;5053586;28;20056;-57
2023/09/16 07:52:25;;;;;;;0.80;0.63;;;;;;;17.26;51.25;100913.06;5051755;28;20444;-57
2023/09/16 07:54:51;;;;;;;1.85;0.73;;;;;;;17.12;51.72;100914.31;5053843;28;20068;-61
2023/09/16 07:57:16;;;;;;;2.05;0.65;;;;;;;17.16;51.26;100923.03;5052949;28;20456;-57
2023/09/16 07:59:42;;;;;;;3.63;0.70;;;;;;;17.24;51.14;100903.34;5051769;28;20466;-58
2023/09/16 08:02:07;;;;;;;3.30;0.70;;;;;;;17.30;51.08;100925.31;5053334;28;20029;-58
2023/09/16 08:04:34;;;;;;;1.00;0.70;;;;;;;17.27;50.87;100927.47;5052535;28;20028;-60
2023/09/16 08:07:00;;;;;;;2.20;0.80;;;;;;;17.17;51.45;100933.69;5052881;28;20037;-59
2023/09/16 08:09:26;;;;;;;1.10;0.70;;;;;;;16.99;52.02;100938.06;5053060;28;20044;-61
2023/09/16 08:11:51;;;;;;;2.55;1.00;;;;;;;16.71;52.15;100944.09;5052181;28;20073;-58
2023/09/16 08:14:17;;;;;;;6.22;1.10;;;;;;;16.60;52.90;100945.03;5051524;28;20037;-60
2023/09/16 08:16:42;;;;;;;6.60;1.20;;;;;;;16.57;52.39;100939.03;5052424;28;20049;-57
2023/09/16 08:19:08;;;;;;;5.47;1.15;;;;;;;16.43;53.11;100940.25;5052875;28;20455;-55
2023/09/16 08:21:33;;;;;;;4.38;1.20;;;;;;;16.39;53.80;100931.56;5051706;28;20341;-61
2023/09/16 08:23:59;;;;;;;1.38;1.27;;;;;;;16.24;54.12;100922.09;5052038;28;20060;-63
2023/09/16 08:26:24;;;;;;;6.13;1.38;;;;;;;16.35;53.69;100938.22;5051315;28;20132;-63
2023/09/16 08:28:49;;;;;;;3.88;1.00;;;;;;;16.20;53.54;100933.19;5049723;28;20079;-65
2023/09/16 08:31:15;;;;;;;3.53;0.90;;;;;;;15.87;53.69;100908.06;5050620;28;20114;-65
2023/09/16 08:33:40;;;;;;;2.45;1.10;;;;;;;15.62;54.40;100885.84;5051790;28;20029;-64
2023/09/16 08:36:06;;;;;;;2.05;0.82;;;;;;;15.78;54.07;100912.41;5052566;28;20036;-61
2023/09/16 08:38:31;;;;;;;4.88;1.17;;;;;;;16.21;53.45;100963.75;5051440;28;20123;-66
2023/09/16 08:41:08;;;;;;;1.80;1.05;;;;;;;16.39;53.30;100969.38;5041320;28;20030;-67
2023/09/16 08:43:37;;;;;;;4.00;1.20;;;;;;;16.46;52.87;100972.41;5038483;28;20072;-62
2023/09/16 08:46:08;;;;;;;1.70;0.98;;;;;;;16.32;52.90;100973.63;5051929;28;20116;-62
2023/09/16 08:48:37;;;;;;;1.45;1.00;;;;;;;16.14;52.49;100944.50;5050129;28;20037;-65
2023/09/16 08:51:05;;;;;;;4.35;0.70;;;;;;;16.35;51.79;100978.75;5051269;28;20041;-62
2023/09/16 08:53:35;;;;;;;2.28;0.63;;;;;;;16.85;50.98;100974.44;5050609;28;20060;-65
2023/09/16 08:56:02;;;;;;;2.55;0.88;;;;;;;17.28;49.56;100976.03;5051747;28;20036;-64
2023/09/16 08:58:28;;;;;;;1.85;0.80;;;;;;;17.57;49.08;100969.78;5051087;28;20025;-63
2023/09/16 09:00:53;;;;;;;4.13;2.33;;;;;;;17.60;48.52;100942.44;5050755;28;20033;-63
2023/09/16 09:03:20;;;;;;;3.13;1.27;;;;;;;17.79;48.43;100970.50;5052917;28;20119;-64
2023/09/16 09:05:48;;;;;;;3.75;1.00;;;;;;;17.82;48.41;100974.78;5052188;28;20402;-63
2023/09/16 09:08:13;;;;;;;5.45;1.05;;;;;;;18.00;48.36;100973.06;5052339;28;20032;-63
2023/09/16 09:10:42;;;;;;;2.63;0.98;;;;;;;18.26;47.51;100975.19;5052495;28;20102;-64
2023/09/16 09:13:12;;;;;;;1.98;1.00;;;;;;;18.58;46.40;100978.53;5035009;28;20075;-63
2023/09/16 09:15:39;;;;;;;2.28;1.05;;;;;;;18.75;45.83;100975.03;5052224;28;20098;-63
2023/09/16 09:18:06;;;;;;;4.75;0.98;;;;;;;18.86;45.09;100965.00;5052263;28;20037;-64
2023/09/16 09:20:32;;;;;;;7.32;2.90;;;;;;;18.75;44.87;100936.19;5052197;28;20360;-63
2023/09/16 09:22:59;;;;;;;4.40;2.05;;;;;;;18.99;44.85;100968.22;5050188;28;20029;-64
2023/09/16 09:25:28;;;;;;;4.25;1.50;;;;;;;19.14;45.12;100978.59;5033656;28;20329;-62
2023/09/16 09:27:56;;;;;;;1.52;1.25;;;;;;;19.10;44.90;100979.91;5033654;28;20044;-63
2023/09/16 09:30:27;;;;;;;2.53;1.08;;;;;;;18.80;44.94;100982.72;5051497;28;20025;-62
2023/09/16 09:32:56;;;;;;;5.57;1.60;;;;;;;18.56;45.74;100989.53;5051754;28;20084;-63
2023/09/16 09:35:31;;;;;;;3.15;1.55;;;;;;;18.62;46.24;100996.22;5050755;28;20056;-64
2023/09/16 09:37:58;;;;;;;3.50;1.27;;;;;;;18.68;46.00;100989.31;5052265;28;20092;-63
2023/09/16 09:40:25;;;;;;;2.88;1.17;;;;;;;18.69;45.52;101004.59;5052070;28;20103;-63
2023/09/16 09:42:52;;;;;;;4.35;1.38;;;;;;;18.66;45.83;101008.47;5051105;28;20039;-63
2023/09/16 09:45:20;;;;;;;4.97;1.20;;;;;;;18.41;46.08;101002.69;5051964;28;20155;-65
2023/09/16 09:47:48;;;;;;;2.35;1.30;;;;;;;18.22;46.11;101006.31;5052146;28;20123;-63
2023/09/16 09:50:16;;;;;;;2.13;1.30;;;;;;;17.83;47.14;101004.44;5051932;28;20116;-64
2023/09/16 09:52:50;;;;;;;5.03;1.63;;;;;;;17.63;47.91;101006.28;5052110;28;20040;-63
2023/09/16 09:55:23;;;;;;;4.55;2.50;;;;;;;17.45;48.39;101011.53;5052073;28;20029;-63
2023/09/16 09:57:52;;;;;;;4.22;2.25;;;;;;;17.25;49.06;101008.78;5052286;28;20064;-63
2023/09/16 10:00:20;;;;;;;3.17;1.48;;;;;;;17.00;49.15;101008.28;5051845;28;20351;-63
2023/09/16 10:02:47;;;;;;;3.22;1.40;;;;;;;16.97;49.23;101013.94;5052062;28;20067;-64
2023/09/16 10:05:20;;;;;;;6.53;1.95;;;;;;;16.98;49.39;101028.31;5052113;28;20459;-62
2023/09/16 10:07:47;;;;;;;4.22;1.50;;;;;;;16.97;49.40;101027.47;5050562;28;20041;-63
2023/09/16 10:10:16;;;;;;;1.30;1.10;;;;;;;17.00;49.03;101029.94;5051916;28;20466;-63
2023/09/16 10:12:44;;;;;;;1.85;1.20;;;;;;;16.81;49.15;101000.91;5052275;28;20067;-65
2023/09/16 10:15:10;;;;;;;2.38;1.23;;;;;;;16.72;49.50;101024.22;5050856;28;20106;-64
2023/09/16 10:17:36;;;;;;;4.85;1.10;;;;;;;16.45;50.49;101025.63;5052143;28;20044;-63
2023/09/16 10:20:04;;;;;;;1.75;0.98;;;;;;;16.36;50.75;101026.41;5052198;28;20317;-63
2023/09/16 10:22:30;;;;;;;3.17;1.27;;;;;;;16.20;51.02;101030.47;5051796;28;20037;-63
2023/09/16 10:24:55;;;;;;;4.85;1.58;;;;;;;16.20;51.15;101030.47;5050784;28;20071;-65
2023/09/16 10:27:24;;;;;;;2.25;1.30;;;;;;;16.29;50.80;101028.81;5051129;28;20069;-62
2023/09/16 10:29:51;;;;;;;15.13;8.88;;;;;;;16.31;50.26;101034.06;5051062;28;20056;-64
2023/09/16 10:32:17;;;;;;;4.68;1.92;;;;;;;16.32;49.88;101038.50;5051991;28;20417;-63
2023/09/16 10:34:46;;;;;;;1.73;1.17;;;;;;;16.12;49.71;101000.50;5051513;28;20040;-64
2023/09/16 10:37:16;;;;;;;2.33;1.35;;;;;;;16.36;49.94;101045.34;5051899;28;20087;-63
2023/09/16 10:39:45;;;;;;;4.60;1.17;;;;;;;16.26;50.02;101028.22;5052497;28;20037;-63
2023/09/16 10:42:12;;;;;;;2.05;1.20;;;;;;;16.34;49.85;101036.50;5051812;28;20032;-63
2023/09/16 10:44:39;;;;;;;1.52;1.25;;;;;;;16.26;50.06;101028.22;5051073;28;20036;-64
2023/09/16 10:47:06;;;;;;;1.55;1.08;;;;;;;16.41;50.33;101039.53;5052158;28;20033;-65
2023/09/16 10:49:32;;;;;;;5.07;1.40;;;;;;;16.57;50.07;101028.25;5052462;28;20025;-62
2023/09/16 10:52:03;;;;;;;2.92;1.63;;;;;;;16.77;49.62;101032.78;5052091;28;20474;-64
2023/09/16 10:54:45;;;;;;;3.70;1.60;;;;;;;16.84;49.29;101038.50;5033508;28;20107;-66
2023/09/16 10:57:18;;;;;;;2.92;1.20;;;;;;;16.78;48.61;101039.06;5051909;28;20037;-65
2023/09/16 10:59:49;;;;;;;3.45;1.13;;;;;;;16.84;48.53;101034.94;5052264;28;20032;-64
2023/09/16 11:02:30;;;;;;;1.98;1.00;;;;;;;17.01;48.08;101038.91;5052071;28;20029;-63
2023/09/16 11:04:55;;;;;;;4.00;1.10;;;;;;;16.99;47.38;101035.47;5050856;28;20044;-63
2023/09/16 11:07:21;;;;;;;3.00;1.00;;;;;;;17.01;47.51;101030.78;5052318;28;20081;-63
2023/09/16 11:09:48;;;;;;;1.13;0.80;;;;;;;17.13;47.15;101045.91;5056053;28;20383;-64
2023/09/16 11:12:16;;;;;;;1.35;0.90;;;;;;;17.04;47.19;101044.88;5054918;28;20456;-63
2023/09/16 11:14:43;;;;;;;3.28;1.13;;;;;;;16.85;47.65;101045.63;5054531;28;20079;-65
2023/09/16 11:17:15;;;;;;;2.30;0.90;;;;;;;16.78;47.75;101053.41;5055816;28;20037;-64
2023/09/16 11:19:42;;;;;;;2.47;1.00;;;;;;;16.49;48.14;101048.72;5055719;28;20029;-64